Station: EBSP - 24/04/2019 14:51Z (il y a 9 minutes)
EBSP 241450Z AUTO 19012KT 140V230 CAVOK 19/05 Q1001
Vent du 190º - 12 kt (vent de direction variable de 140º à 230º)
Visibilité > 10 km et plafond haut ou pas de nuages significatifs
Température: +19ºC - Point de rosée: +05ºC - QNH: 1001 hPa